Szczecin-Goleniow Solidarnosc Airport Goleniow PL
ICAO: EPSC
IATA: SZZ
Category: Medium
Scheduled Services: Yes

Elevation: 154 ft
TransAlt. 6500 ft.

Airport Communications:
SZCZECIN TWR:118.5

EPSC Zoom In..

Runways:

(A) RW 13 length 8202 ft width 197 ft
---- / hdg 128

(B) RW 31 length 8202 ft width 197 ft
ILS 110.50 / hdg 308

Location; EPSC
Day. 05 / Time. 16.30 Zulu
* QNH: 1007
* Temperature: 19° c. 66.2°f.
* Wind from: 260° Speed 10 kn.
Dewpoint: 18° c.
Visibility: 6000 m.
Clouds: Scattered 300 ft.
Clouds: Broken 2200 ft.
Conditions: Rain Showers.

EPSC 051630Z 26010KT 6000 SHRA SCT003 BKN022CB 19/18 Q1007

Going to: --> -->


Wind From 260°
Speed 10 kn.

 
 
jpsmedia worldairports.se 2020   terms of use